Dorena, Oregon
Current Conditions -  °F | °C
As of 3:54 PM on Sunday 25 Jan 2015 (Local Time) from KEUG Reporting Station
Moderate Fog Moderate Fog  
Wind Chill: 45°   Ceiling: 200
Heat Index: 47°   Visibility: 0.12mi
Dew Point: 46°   Wind: 5mph
Humidity: 97%   Direction: 30°NNE
Pressure: 30.06"   Gusts: NA
Location:  43.72°N, 122.86°W
Report Text: KEUG 252354Z 03004KT 1/8SM R16R/1000V1400FT FG VV002 08/08 A3006 RMK AO2 SLP180 T00830078 10089 20056 56017 $
Loading
Personal Weather Stations






























Interactive Weather Map New forecast layout! Learn more

10-Day Weather Forecast

Advertisements
Track Severe Weather on mobile